createdAt,value
2023-06-30T00:00:14.701Z,14.50
2023-06-30T00:02:43.084Z,18.15
2023-06-30T00:05:11.120Z,19.58
2023-06-30T00:07:38.483Z,13.15
2023-06-30T00:10:07.344Z,18.13
2023-06-30T00:12:34.700Z,14.52
2023-06-30T00:15:02.130Z,17.80
2023-06-30T00:17:28.874Z,17.48
2023-06-30T00:19:59.029Z,21.30
2023-06-30T00:22:26.566Z,23.17
2023-06-30T00:24:57.291Z,16.35
2023-06-30T00:29:52.544Z,20.33
2023-06-30T00:32:19.395Z,21.48
2023-06-30T00:34:46.144Z,16.40
2023-06-30T00:37:12.809Z,19.90
2023-06-30T00:39:39.415Z,27.05
2023-06-30T00:42:06.374Z,17.60
2023-06-30T00:44:33.031Z,19.90
2023-06-30T00:47:03.112Z,17.35
2023-06-30T00:49:29.979Z,21.85
2023-06-30T00:51:56.898Z,21.25
2023-06-30T00:54:23.670Z,19.33
2023-06-30T00:56:50.342Z,19.40
2023-06-30T00:59:17.075Z,20.60
2023-06-30T01:02:19.638Z,20.02
2023-06-30T01:05:07.426Z,20.40
2023-06-30T01:07:53.600Z,18.05
2023-06-30T01:10:25.952Z,18.65
2023-06-30T01:12:53.573Z,19.17
2023-06-30T01:15:21.400Z,23.90
2023-06-30T01:18:01.903Z,19.33
2023-06-30T01:20:34.370Z,20.98
2023-06-30T01:23:03.945Z,19.75
2023-06-30T01:25:31.147Z,22.10
2023-06-30T01:27:59.600Z,17.48
2023-06-30T01:30:30.781Z,20.13
2023-06-30T01:32:59.696Z,21.33
2023-06-30T01:35:28.735Z,22.42
2023-06-30T01:37:56.627Z,21.65
2023-06-30T01:40:24.002Z,21.52
2023-06-30T01:42:58.628Z,24.05
2023-06-30T01:45:27.863Z,23.40
2023-06-30T01:47:55.866Z,23.30
2023-06-30T01:50:23.631Z,25.05
2023-06-30T01:52:51.000Z,20.25
2023-06-30T01:55:18.259Z,28.42
2023-06-30T01:57:45.040Z,24.15
2023-06-30T02:00:12.332Z,29.30
2023-06-30T02:02:39.047Z,24.83
2023-06-30T02:05:05.882Z,30.35
2023-06-30T02:07:33.935Z,27.80
2023-06-30T02:10:00.792Z,25.70
2023-06-30T02:12:27.546Z,27.00
2023-06-30T02:14:54.543Z,32.30
2023-06-30T02:17:29.287Z,22.17
2023-06-30T02:19:56.020Z,30.17
2023-06-30T02:22:22.651Z,25.45
2023-06-30T02:24:49.306Z,27.60
2023-06-30T02:27:17.966Z,25.52
2023-06-30T02:29:44.975Z,25.75
2023-06-30T02:32:11.634Z,21.60
2023-06-30T02:34:38.247Z,24.95
2023-06-30T02:37:05.246Z,30.10
2023-06-30T02:39:31.947Z,28.55
2023-06-30T02:41:58.633Z,29.23
2023-06-30T02:44:25.398Z,27.42
2023-06-30T02:46:52.529Z,38.17
2023-06-30T02:49:19.141Z,30.77
2023-06-30T02:51:45.902Z,36.90
2023-06-30T02:54:12.511Z,28.92
2023-06-30T02:56:39.302Z,33.72
2023-06-30T02:59:07.255Z,27.88
2023-06-30T03:01:34.004Z,26.80
2023-06-30T03:04:01.437Z,26.27
2023-06-30T03:06:28.107Z,28.33
2023-06-30T03:08:54.774Z,28.45
2023-06-30T03:11:21.422Z,32.47
2023-06-30T03:13:48.252Z,31.25
2023-06-30T03:16:14.903Z,34.40
2023-06-30T03:18:41.747Z,35.83
2023-06-30T03:21:08.356Z,35.45
2023-06-30T03:23:35.013Z,35.88
2023-06-30T03:26:02.651Z,31.75
2023-06-30T03:28:30.440Z,32.50
2023-06-30T03:30:57.947Z,35.05
2023-06-30T03:33:24.699Z,32.05
2023-06-30T03:35:51.983Z,29.90
2023-06-30T03:38:18.713Z,33.72
2023-06-30T03:40:45.493Z,30.67
2023-06-30T03:43:12.373Z,29.55
2023-06-30T03:45:39.632Z,31.45
2023-06-30T03:48:06.562Z,33.13
2023-06-30T03:50:33.220Z,29.85
2023-06-30T03:52:59.904Z,30.50
2023-06-30T03:55:26.885Z,28.27
2023-06-30T03:57:53.641Z,33.08
2023-06-30T04:00:23.421Z,36.42
2023-06-30T04:02:50.088Z,30.65
2023-06-30T04:05:22.632Z,36.05
2023-06-30T04:07:50.042Z,34.33
2023-06-30T04:10:16.784Z,28.55
2023-06-30T04:12:43.850Z,36.97
2023-06-30T04:15:11.962Z,28.30
2023-06-30T04:17:38.854Z,34.67
2023-06-30T04:20:10.802Z,33.78
2023-06-30T04:22:38.500Z,32.22
2023-06-30T04:25:07.622Z,33.83
2023-06-30T04:27:34.560Z,40.78
2023-06-30T04:30:01.439Z,41.58
2023-06-30T04:32:28.081Z,34.97
2023-06-30T04:34:54.864Z,49.55
2023-06-30T04:37:25.199Z,47.63
2023-06-30T04:39:52.023Z,42.95
2023-06-30T04:42:18.693Z,45.03
2023-06-30T04:44:45.385Z,37.85
2023-06-30T04:47:12.066Z,45.05
2023-06-30T04:49:38.774Z,36.63
2023-06-30T04:52:05.871Z,40.58
2023-06-30T04:54:35.367Z,38.03
2023-06-30T04:57:02.056Z,41.08
2023-06-30T04:59:28.843Z,42.00
2023-06-30T05:01:56.204Z,43.10
2023-06-30T05:04:23.036Z,40.15
2023-06-30T05:06:49.726Z,52.97
2023-06-30T05:09:17.212Z,45.60
2023-06-30T05:11:43.840Z,44.13
2023-06-30T05:14:10.454Z,46.00
2023-06-30T05:16:37.120Z,45.20
2023-06-30T05:19:04.368Z,47.17
2023-06-30T05:21:31.064Z,50.53
2023-06-30T05:23:57.947Z,43.97
2023-06-30T05:26:24.597Z,49.65
2023-06-30T05:29:03.594Z,54.20
2023-06-30T05:31:31.719Z,44.70
2023-06-30T05:33:58.408Z,45.15
2023-06-30T05:36:27.132Z,37.45
2023-06-30T05:38:53.786Z,45.38
2023-06-30T05:41:20.481Z,44.22
2023-06-30T05:43:47.191Z,51.67
2023-06-30T05:46:13.915Z,47.08
2023-06-30T05:48:40.569Z,56.95
2023-06-30T05:51:07.433Z,55.13
2023-06-30T05:53:34.085Z,51.38
2023-06-30T05:56:00.910Z,46.78
2023-06-30T05:58:27.619Z,52.78
2023-06-30T06:00:54.359Z,50.00
2023-06-30T06:03:21.257Z,49.20
2023-06-30T06:05:48.414Z,49.72
2023-06-30T06:08:15.506Z,49.80
2023-06-30T06:10:42.223Z,47.88
2023-06-30T06:13:09.583Z,45.05
2023-06-30T06:15:36.270Z,38.15
2023-06-30T06:18:03.048Z,34.42
2023-06-30T06:20:29.906Z,44.85
2023-06-30T06:22:56.700Z,31.13
2023-06-30T06:25:23.310Z,39.10
2023-06-30T06:27:49.893Z,31.17
2023-06-30T06:30:16.509Z,32.08
2023-06-30T06:32:43.269Z,31.13
2023-06-30T06:35:09.952Z,31.13
2023-06-30T06:37:37.179Z,26.60
2023-06-30T06:40:04.160Z,20.27
2023-06-30T06:42:30.772Z,20.23
2023-06-30T06:44:57.511Z,16.45
2023-06-30T06:48:01.697Z,16.40
2023-06-30T06:50:28.507Z,14.52
2023-06-30T06:52:55.366Z,14.13
2023-06-30T06:55:24.203Z,13.05
2023-06-30T06:57:50.884Z,8.48
2023-06-30T07:00:18.148Z,13.05
2023-06-30T07:02:44.955Z,8.75
2023-06-30T07:05:12.282Z,16.52
2023-06-30T07:07:39.299Z,10.50
2023-06-30T07:10:06.969Z,9.20
2023-06-30T07:12:33.756Z,15.00
2023-06-30T07:15:00.448Z,13.05
2023-06-30T07:17:27.647Z,11.20
2023-06-30T07:19:54.308Z,11.13
2023-06-30T07:22:22.632Z,12.77
2023-06-30T07:24:49.775Z,8.82
2023-06-30T07:27:16.359Z,8.18
2023-06-30T07:29:43.081Z,9.70
2023-06-30T07:32:09.803Z,11.98
2023-06-30T07:34:38.395Z,11.32
2023-06-30T07:37:06.194Z,7.65
2023-06-30T07:39:34.713Z,9.40
2023-06-30T07:42:01.684Z,7.45
2023-06-30T07:44:28.352Z,5.28
2023-06-30T07:46:55.057Z,10.27
2023-06-30T07:49:24.690Z,14.43
2023-06-30T07:51:51.982Z,6.82
2023-06-30T07:54:18.756Z,13.90
2023-06-30T07:56:47.139Z,8.90
2023-06-30T07:59:13.789Z,9.00
2023-06-30T08:01:40.401Z,18.25
2023-06-30T08:04:10.521Z,5.93
2023-06-30T08:06:37.479Z,13.82
2023-06-30T08:09:04.956Z,6.63
2023-06-30T08:11:32.062Z,5.70
2023-06-30T08:14:00.887Z,5.78
2023-06-30T08:16:27.634Z,5.85
2023-06-30T08:18:54.692Z,5.03
2023-06-30T08:21:23.520Z,13.13
2023-06-30T08:23:50.197Z,4.65
2023-06-30T08:26:17.371Z,5.35
2023-06-30T08:28:44.954Z,8.48
2023-06-30T08:31:11.725Z,10.25
2023-06-30T08:33:41.215Z,12.38
2023-06-30T08:36:08.301Z,11.25
2023-06-30T08:38:35.638Z,13.07
2023-06-30T08:41:04.777Z,12.93
2023-06-30T08:43:33.322Z,6.90
2023-06-30T08:46:03.279Z,5.32
2023-06-30T08:48:31.587Z,10.23
2023-06-30T08:51:01.992Z,7.82
2023-06-30T08:53:30.217Z,5.22
2023-06-30T08:55:59.265Z,7.80
2023-06-30T08:58:29.338Z,5.68
2023-06-30T09:00:59.047Z,4.97
2023-06-30T09:03:27.331Z,5.78
2023-06-30T09:05:56.925Z,6.15
2023-06-30T09:08:27.872Z,4.68
2023-06-30T09:10:56.128Z,6.43
2023-06-30T09:13:25.612Z,7.00
2023-06-30T09:15:56.785Z,7.30
2023-06-30T09:18:24.057Z,6.20
2023-06-30T09:20:51.091Z,4.55
2023-06-30T09:23:18.226Z,7.05
2023-06-30T09:25:45.341Z,7.63
2023-06-30T09:28:15.024Z,13.32
2023-06-30T09:30:45.709Z,6.95
2023-06-30T09:33:17.791Z,10.20
2023-06-30T09:35:47.969Z,10.88
2023-06-30T09:38:20.920Z,15.20
2023-06-30T09:40:50.081Z,15.45
2023-06-30T09:43:23.044Z,12.05
2023-06-30T09:46:03.161Z,9.98
2023-06-30T09:48:36.447Z,9.63
2023-06-30T09:51:05.996Z,12.50
2023-06-30T09:53:39.293Z,10.52
2023-06-30T09:56:08.667Z,11.00
2023-06-30T09:58:37.850Z,14.77
2023-06-30T10:01:04.591Z,11.73
2023-06-30T10:03:33.666Z,10.90
2023-06-30T10:06:01.700Z,10.00
2023-06-30T10:08:29.137Z,9.32
2023-06-30T10:10:58.068Z,13.80
2023-06-30T10:13:26.949Z,12.35
2023-06-30T10:15:53.731Z,12.48
2023-06-30T10:18:28.390Z,12.02
2023-06-30T10:20:55.149Z,13.95
2023-06-30T10:23:24.208Z,11.75
2023-06-30T10:25:51.951Z,12.77
2023-06-30T10:28:19.700Z,11.20
2023-06-30T10:30:48.042Z,9.55
2023-06-30T10:33:14.901Z,11.27
2023-06-30T10:35:42.775Z,12.82
2023-06-30T10:38:11.457Z,14.48
2023-06-30T10:40:38.117Z,10.05
2023-06-30T10:43:07.133Z,12.68
2023-06-30T10:46:10.435Z,18.13
2023-06-30T10:48:40.330Z,11.40
2023-06-30T10:51:09.227Z,10.90
2023-06-30T10:53:36.054Z,12.52
2023-06-30T10:56:03.883Z,13.68
2023-06-30T10:58:32.950Z,16.52
2023-06-30T11:01:07.182Z,11.45
2023-06-30T11:03:59.464Z,11.65
2023-06-30T11:06:27.457Z,11.23
2023-06-30T11:09:02.045Z,15.75
2023-06-30T11:11:29.144Z,14.70
2023-06-30T11:14:08.555Z,16.95
2023-06-30T11:17:03.222Z,17.13
2023-06-30T11:19:29.849Z,17.75
2023-06-30T11:22:21.860Z,15.75
2023-06-30T11:24:49.084Z,16.08
2023-06-30T11:27:16.811Z,15.48
2023-06-30T11:29:44.063Z,11.75
2023-06-30T11:32:11.039Z,16.00
2023-06-30T11:34:38.120Z,12.80
2023-06-30T11:37:08.209Z,15.90
2023-06-30T11:39:37.843Z,12.07
2023-06-30T11:42:04.591Z,16.88
2023-06-30T11:44:36.740Z,13.20
2023-06-30T11:47:03.732Z,11.02
2023-06-30T11:49:30.721Z,11.82
2023-06-30T11:51:57.433Z,13.93
2023-06-30T11:54:34.304Z,13.07
2023-06-30T11:57:01.550Z,10.45
2023-06-30T11:59:29.031Z,22.35
2023-06-30T12:01:55.689Z,17.23
2023-06-30T12:04:22.535Z,11.95
2023-06-30T12:06:50.262Z,12.77
2023-06-30T12:09:17.152Z,12.90
2023-06-30T12:11:45.896Z,13.27
2023-06-30T12:14:16.646Z,12.63
2023-06-30T12:19:11.621Z,13.90
2023-06-30T12:21:52.102Z,9.18
2023-06-30T12:24:22.879Z,8.90
2023-06-30T12:26:50.936Z,8.25
2023-06-30T12:29:18.559Z,8.00
2023-06-30T12:31:49.075Z,11.43
2023-06-30T12:34:37.465Z,20.70
2023-06-30T12:37:04.742Z,12.50
2023-06-30T12:39:31.439Z,6.97
2023-06-30T12:41:58.146Z,8.07
2023-06-30T12:44:25.181Z,6.70
2023-06-30T12:47:09.422Z,5.35
2023-06-30T12:49:38.458Z,8.60
2023-06-30T12:52:05.733Z,5.97
2023-06-30T12:54:33.328Z,7.57
2023-06-30T12:57:00.061Z,6.20
2023-06-30T12:59:26.844Z,4.80
2023-06-30T13:01:54.024Z,5.57
2023-06-30T13:04:20.897Z,5.88
2023-06-30T13:06:47.585Z,4.40
2023-06-30T13:09:15.317Z,3.63
2023-06-30T13:11:42.737Z,7.57
2023-06-30T13:14:12.031Z,5.43
2023-06-30T13:16:40.462Z,7.55
2023-06-30T13:19:07.131Z,4.28
2023-06-30T13:21:33.835Z,4.60
2023-06-30T13:24:00.684Z,3.20
2023-06-30T13:26:27.297Z,5.85
2023-06-30T13:28:53.960Z,5.22
2023-06-30T13:31:20.618Z,7.63
2023-06-30T13:33:49.377Z,4.65
2023-06-30T13:36:16.023Z,7.45
2023-06-30T13:38:44.500Z,5.03
2023-06-30T13:41:11.265Z,7.25
2023-06-30T13:43:37.915Z,3.42
2023-06-30T13:46:05.654Z,5.15
2023-06-30T13:48:32.994Z,3.85
2023-06-30T13:50:59.910Z,7.07
2023-06-30T13:53:26.631Z,4.65
2023-06-30T13:55:53.755Z,3.80
2023-06-30T13:58:20.707Z,6.63
2023-06-30T14:00:48.178Z,3.47
2023-06-30T14:03:15.681Z,10.98
2023-06-30T14:05:47.480Z,6.90
2023-06-30T14:08:14.325Z,5.30
2023-06-30T14:10:40.921Z,3.83
2023-06-30T14:13:07.607Z,6.28
2023-06-30T14:15:34.426Z,7.05
2023-06-30T14:18:01.142Z,8.30
2023-06-30T14:20:28.007Z,5.85
2023-06-30T14:22:54.613Z,5.68
2023-06-30T14:25:23.145Z,7.47
2023-06-30T14:27:50.374Z,7.35
2023-06-30T14:30:17.227Z,4.90
2023-06-30T14:32:44.543Z,11.50
2023-06-30T14:35:11.839Z,5.78
2023-06-30T14:37:38.708Z,5.40
2023-06-30T14:40:09.676Z,7.78
2023-06-30T14:42:36.367Z,5.75
2023-06-30T14:45:04.895Z,7.60
2023-06-30T14:47:31.639Z,4.53
2023-06-30T14:49:58.854Z,7.30
2023-06-30T14:52:26.066Z,7.43
2023-06-30T14:54:52.739Z,4.88
2023-06-30T14:57:19.414Z,3.50
2023-06-30T14:59:46.043Z,7.80
2023-06-30T15:02:12.837Z,10.70
2023-06-30T15:04:39.726Z,4.40
2023-06-30T15:07:06.628Z,4.18
2023-06-30T15:09:33.279Z,8.00
2023-06-30T15:11:59.937Z,7.60
2023-06-30T15:14:29.488Z,5.88
2023-06-30T15:16:56.088Z,4.15
2023-06-30T15:19:22.746Z,5.55
2023-06-30T15:21:53.263Z,4.70
2023-06-30T15:26:46.478Z,5.47
2023-06-30T15:29:13.234Z,4.40
2023-06-30T15:31:40.852Z,10.63
2023-06-30T15:34:07.764Z,7.53
2023-06-30T15:36:34.584Z,7.53
2023-06-30T15:39:02.073Z,6.03
2023-06-30T15:41:28.748Z,9.32
2023-06-30T15:43:55.378Z,2.85
2023-06-30T15:46:22.082Z,7.28
2023-06-30T15:48:48.782Z,3.92
2023-06-30T15:51:15.582Z,5.25
2023-06-30T15:53:42.302Z,3.85
2023-06-30T15:56:09.017Z,3.35
2023-06-30T15:58:35.655Z,7.53
2023-06-30T16:01:02.227Z,9.25
2023-06-30T16:03:31.254Z,5.25
2023-06-30T16:05:58.091Z,5.57
2023-06-30T16:08:24.780Z,3.60
2023-06-30T16:10:51.898Z,5.22
2023-06-30T16:13:18.596Z,4.68
2023-06-30T16:15:45.698Z,3.92
2023-06-30T16:18:12.771Z,7.00
2023-06-30T16:20:39.466Z,4.55
2023-06-30T16:23:06.072Z,3.50
2023-06-30T16:25:32.968Z,5.40
2023-06-30T16:27:59.641Z,5.82
2023-06-30T16:30:31.334Z,5.35
2023-06-30T16:32:58.554Z,4.85
2023-06-30T16:35:26.141Z,2.92
2023-06-30T16:37:53.528Z,4.30
2023-06-30T16:40:20.882Z,6.03
2023-06-30T16:42:48.106Z,4.25
2023-06-30T16:45:14.891Z,3.78
2023-06-30T16:47:43.395Z,5.45
2023-06-30T16:50:11.828Z,3.23
2023-06-30T16:52:39.817Z,6.70
2023-06-30T16:55:07.833Z,4.75
2023-06-30T16:57:34.467Z,6.43
2023-06-30T17:00:06.089Z,4.78
2023-06-30T17:02:34.068Z,4.30
2023-06-30T17:05:00.878Z,3.45
2023-06-30T17:07:27.719Z,4.22
2023-06-30T17:09:54.667Z,3.97
2023-06-30T17:12:22.007Z,6.78
2023-06-30T17:14:48.678Z,7.38
2023-06-30T17:17:15.423Z,5.72
2023-06-30T17:19:42.284Z,5.63
2023-06-30T17:22:09.296Z,3.00
2023-06-30T17:24:35.912Z,4.70
2023-06-30T17:27:02.523Z,6.00
2023-06-30T17:29:29.179Z,5.53
2023-06-30T17:31:55.830Z,4.25
2023-06-30T17:34:22.986Z,7.80
2023-06-30T17:36:59.924Z,2.72
2023-06-30T17:39:26.594Z,6.03
2023-06-30T17:41:53.241Z,4.57
2023-06-30T17:44:20.722Z,5.03
2023-06-30T17:46:47.537Z,6.82
2023-06-30T17:49:26.097Z,6.65
2023-06-30T17:51:53.039Z,4.07
2023-06-30T17:54:21.942Z,5.10
2023-06-30T17:56:49.417Z,5.60
2023-06-30T17:59:17.131Z,3.92
2023-06-30T18:01:47.020Z,3.00
2023-06-30T18:04:15.224Z,4.50
2023-06-30T18:07:13.228Z,6.20
2023-06-30T18:09:45.090Z,6.20
2023-06-30T18:12:12.390Z,4.38
2023-06-30T18:14:42.277Z,4.35
2023-06-30T18:17:09.134Z,4.13
2023-06-30T18:19:36.789Z,4.50
2023-06-30T18:22:03.991Z,4.47
2023-06-30T18:24:30.681Z,6.03
2023-06-30T18:26:57.379Z,4.85
2023-06-30T18:29:24.838Z,2.55
2023-06-30T18:31:53.586Z,2.53
2023-06-30T18:34:22.438Z,5.30
2023-06-30T18:36:49.156Z,5.60
2023-06-30T18:39:16.925Z,4.15
2023-06-30T18:41:44.413Z,5.03
2023-06-30T18:44:13.059Z,4.90
2023-06-30T18:46:39.764Z,6.28
2023-06-30T18:57:15.771Z,3.78
2023-06-30T18:59:44.623Z,3.20
2023-06-30T19:02:11.458Z,3.95
2023-06-30T19:04:38.182Z,6.43
2023-06-30T19:07:05.177Z,4.90
2023-06-30T19:09:31.839Z,4.05
2023-06-30T19:11:59.789Z,4.57
2023-06-30T19:14:26.592Z,3.80
2023-06-30T19:16:53.918Z,4.80
2023-06-30T19:19:22.220Z,3.88
2023-06-30T19:21:48.880Z,5.20
2023-06-30T19:24:16.313Z,4.93
2023-06-30T19:26:43.048Z,4.45
2023-06-30T19:29:09.647Z,4.22
2023-06-30T19:31:37.921Z,3.75
2023-06-30T19:34:04.678Z,9.63
2023-06-30T19:36:33.547Z,5.97
2023-06-30T19:39:00.507Z,6.72
2023-06-30T19:41:28.009Z,5.47
2023-06-30T19:43:55.080Z,5.25
2023-06-30T19:46:21.819Z,5.38
2023-06-30T19:48:48.496Z,8.20
2023-06-30T19:51:15.302Z,5.57
2023-06-30T19:53:42.005Z,5.47
2023-06-30T19:56:14.301Z,7.55
2023-06-30T19:58:44.220Z,4.03
2023-06-30T20:01:10.909Z,5.45
2023-06-30T20:03:38.367Z,8.05
2023-06-30T20:06:05.141Z,3.95
2023-06-30T20:08:31.762Z,5.85
2023-06-30T20:10:58.512Z,4.68
2023-06-30T20:13:25.153Z,9.15
2023-06-30T20:15:51.772Z,6.35
2023-06-30T20:18:18.742Z,4.47
2023-06-30T20:20:46.399Z,5.90
2023-06-30T20:23:13.077Z,7.57
2023-06-30T20:25:39.710Z,6.85
2023-06-30T20:28:06.347Z,7.05
2023-06-30T20:30:32.958Z,9.40
2023-06-30T20:32:59.881Z,24.20
2023-06-30T20:35:26.510Z,8.73
2023-06-30T20:37:53.260Z,7.18
2023-06-30T20:40:19.905Z,6.13
2023-06-30T20:42:46.686Z,8.18
2023-06-30T20:45:13.411Z,4.88
2023-06-30T20:47:40.476Z,5.35
2023-06-30T20:50:09.318Z,10.52
2023-06-30T20:52:36.746Z,7.22
2023-06-30T20:55:03.642Z,6.97
2023-06-30T20:57:30.300Z,5.43
2023-06-30T20:59:56.941Z,4.07
2023-06-30T21:02:23.979Z,4.15
2023-06-30T21:04:50.710Z,5.00
2023-06-30T21:07:18.460Z,4.55
2023-06-30T21:09:45.086Z,5.32
2023-06-30T21:12:11.664Z,5.15
2023-06-30T21:14:38.620Z,8.02
2023-06-30T21:17:05.638Z,5.30
2023-06-30T21:19:32.457Z,5.28
2023-06-30T21:22:03.254Z,7.50
2023-06-30T21:24:30.712Z,8.98
2023-06-30T21:26:58.148Z,2.90
2023-06-30T21:29:24.722Z,3.78
2023-06-30T21:31:51.420Z,6.35
2023-06-30T21:34:18.102Z,4.47
2023-06-30T21:36:44.813Z,2.80
2023-06-30T21:39:11.514Z,9.75
2023-06-30T21:41:41.189Z,11.10
2023-06-30T21:44:08.222Z,3.63
2023-06-30T21:46:35.127Z,3.08
2023-06-30T21:49:01.981Z,3.65
2023-06-30T21:51:28.710Z,5.72
2023-06-30T21:53:57.004Z,5.78
2023-06-30T21:56:23.613Z,5.72
2023-06-30T21:58:51.823Z,4.97
2023-06-30T22:01:22.769Z,4.03
2023-06-30T22:03:52.551Z,3.90
2023-06-30T22:06:19.219Z,4.88
2023-06-30T22:08:45.843Z,3.50
2023-06-30T22:11:12.499Z,6.78
2023-06-30T22:13:39.161Z,4.75
2023-06-30T22:16:06.297Z,5.13
2023-06-30T22:18:33.105Z,5.80
2023-06-30T22:20:59.826Z,5.47
2023-06-30T22:23:26.710Z,4.25
2023-06-30T22:25:53.823Z,4.93
2023-06-30T22:28:20.499Z,4.05
2023-06-30T22:30:49.829Z,4.00
2023-06-30T22:33:16.619Z,6.40
2023-06-30T22:35:43.205Z,7.53
2023-06-30T22:38:10.796Z,3.05
2023-06-30T22:40:37.441Z,5.30
2023-06-30T22:43:04.074Z,4.15
2023-06-30T22:45:30.744Z,4.07
2023-06-30T22:47:57.453Z,6.47
2023-06-30T22:50:24.079Z,4.47
2023-06-30T22:52:50.795Z,6.57
2023-06-30T22:55:17.393Z,5.00
2023-06-30T22:57:44.032Z,6.30
2023-06-30T23:00:11.116Z,5.15
2023-06-30T23:02:37.946Z,7.53
2023-06-30T23:05:05.140Z,5.68
2023-06-30T23:07:31.810Z,4.70
2023-06-30T23:09:58.605Z,5.68
2023-06-30T23:12:25.307Z,4.45
2023-06-30T23:14:52.569Z,4.20
2023-06-30T23:17:25.976Z,5.15
2023-06-30T23:19:53.002Z,6.13
2023-06-30T23:22:20.765Z,4.65
2023-06-30T23:24:48.142Z,5.32
2023-06-30T23:27:15.840Z,4.63
2023-06-30T23:29:45.887Z,7.35
2023-06-30T23:32:16.665Z,7.03
2023-06-30T23:34:44.392Z,6.90
2023-06-30T23:37:13.249Z,6.82
2023-06-30T23:39:40.828Z,5.32
2023-06-30T23:42:08.829Z,5.15
2023-06-30T23:44:36.079Z,7.40
2023-06-30T23:47:05.347Z,8.38
2023-06-30T23:49:32.967Z,3.38
2023-06-30T23:51:59.964Z,5.40
2023-06-30T23:54:26.633Z,5.30
2023-06-30T23:56:53.316Z,8.27
2023-06-30T23:59:19.942Z,4.68
